createdAt,value
2017-09-30T00:01:10.253Z,85.03
2017-09-30T00:03:38.006Z,85.61
2017-09-30T00:06:05.731Z,85.29
2017-09-30T00:08:33.670Z,85.22
2017-09-30T00:11:01.402Z,85.32
2017-09-30T00:13:29.517Z,85.30
2017-09-30T00:15:57.269Z,84.92
2017-09-30T00:18:25.013Z,84.93
2017-09-30T00:20:52.755Z,84.99
2017-09-30T00:23:20.448Z,84.55
2017-09-30T00:25:48.203Z,84.95
2017-09-30T00:28:15.907Z,85.16
2017-09-30T00:30:43.609Z,85.27
2017-09-30T00:33:12.562Z,85.39
2017-09-30T00:35:40.324Z,85.11
2017-09-30T00:38:08.099Z,85.07
2017-09-30T00:40:35.817Z,84.61
2017-09-30T00:43:03.612Z,84.99
2017-09-30T00:45:31.317Z,85.31
2017-09-30T00:47:59.102Z,85.06
2017-09-30T00:50:26.913Z,84.91
2017-09-30T00:52:54.705Z,84.91
2017-09-30T00:55:22.545Z,85.17
2017-09-30T00:57:50.308Z,85.45
2017-09-30T01:00:18.086Z,85.53
2017-09-30T01:02:45.826Z,85.51
2017-09-30T01:05:13.528Z,85.56
2017-09-30T01:07:41.277Z,85.55
2017-09-30T01:10:09.044Z,85.85
2017-09-30T01:12:36.764Z,85.29
2017-09-30T01:15:04.571Z,85.86
2017-09-30T01:17:32.254Z,85.61
2017-09-30T01:20:00.190Z,84.84
2017-09-30T01:22:28.020Z,85.28
2017-09-30T01:24:55.856Z,85.50
2017-09-30T01:27:23.641Z,85.49
2017-09-30T01:29:51.444Z,85.14
2017-09-30T01:32:19.194Z,85.12
2017-09-30T01:34:47.020Z,85.20
2017-09-30T01:37:14.787Z,84.83
2017-09-30T01:39:42.524Z,85.07
2017-09-30T01:42:10.328Z,85.71
2017-09-30T01:44:38.078Z,86.04
2017-09-30T01:47:05.880Z,86.02
2017-09-30T01:49:33.658Z,85.26
2017-09-30T01:52:02.084Z,85.67
2017-09-30T01:54:29.863Z,85.46
2017-09-30T01:56:57.757Z,85.79
2017-09-30T01:59:25.842Z,85.66
2017-09-30T02:01:53.635Z,84.87
2017-09-30T02:04:21.386Z,84.50
2017-09-30T02:06:49.268Z,85.29
2017-09-30T02:09:17.004Z,85.43
2017-09-30T02:11:44.727Z,84.97
2017-09-30T02:14:12.459Z,84.89
2017-09-30T02:16:40.176Z,86.23
2017-09-30T02:19:08.083Z,86.34
2017-09-30T02:21:36.151Z,85.66
2017-09-30T02:24:04.330Z,85.96
2017-09-30T02:26:32.045Z,85.45
2017-09-30T02:28:59.778Z,86.11
2017-09-30T02:31:27.508Z,85.55
2017-09-30T02:33:55.303Z,85.55
2017-09-30T02:36:22.969Z,85.71
2017-09-30T02:38:50.728Z,87.56
2017-09-30T02:41:18.508Z,86.78
2017-09-30T02:43:46.200Z,86.91
2017-09-30T02:46:13.937Z,86.68
2017-09-30T02:48:41.610Z,87.16
2017-09-30T02:51:09.434Z,86.12
2017-09-30T02:53:37.112Z,85.86
2017-09-30T02:56:04.859Z,86.26
2017-09-30T02:58:32.725Z,87.28
2017-09-30T03:01:00.429Z,87.93
2017-09-30T03:03:28.179Z,87.22
2017-09-30T03:05:55.858Z,88.06
2017-09-30T03:08:23.604Z,88.24
2017-09-30T03:10:51.278Z,86.97
2017-09-30T03:13:19.029Z,86.18
2017-09-30T03:15:46.734Z,87.07
2017-09-30T03:18:14.507Z,86.85
2017-09-30T03:20:42.195Z,86.34
2017-09-30T03:23:09.949Z,86.84
2017-09-30T03:25:37.629Z,87.05
2017-09-30T03:28:05.369Z,85.90
2017-09-30T03:30:33.060Z,85.94
2017-09-30T03:33:00.775Z,86.32
2017-09-30T03:35:28.507Z,86.01
2017-09-30T03:37:56.220Z,86.23
2017-09-30T03:40:23.966Z,86.07
2017-09-30T03:42:51.744Z,85.59
2017-09-30T03:45:19.569Z,86.11
2017-09-30T03:47:47.266Z,85.40
2017-09-30T03:50:15.008Z,85.71
2017-09-30T03:52:42.883Z,85.75
2017-09-30T03:55:10.556Z,87.46
2017-09-30T03:57:38.313Z,87.70
2017-09-30T04:00:06.103Z,86.85
2017-09-30T04:02:33.874Z,86.80
2017-09-30T04:05:01.621Z,87.16
2017-09-30T04:07:29.341Z,87.12
2017-09-30T04:09:57.094Z,87.25
2017-09-30T04:12:24.772Z,87.65
2017-09-30T04:14:52.498Z,87.86
2017-09-30T04:17:20.233Z,87.79
2017-09-30T04:19:47.970Z,87.17
2017-09-30T04:22:15.815Z,86.87
2017-09-30T04:24:43.511Z,87.09
2017-09-30T04:27:11.275Z,86.57
2017-09-30T04:29:39.027Z,86.75
2017-09-30T04:32:06.732Z,87.34
2017-09-30T04:34:34.661Z,87.43
2017-09-30T04:37:02.418Z,88.28
2017-09-30T04:39:30.082Z,88.33
2017-09-30T04:41:57.841Z,87.57
2017-09-30T04:44:25.594Z,87.50
2017-09-30T04:46:53.295Z,87.37
2017-09-30T04:49:21.004Z,87.07
2017-09-30T04:51:49.835Z,87.28
2017-09-30T04:54:17.533Z,86.84
2017-09-30T04:56:45.281Z,86.57
2017-09-30T04:59:12.969Z,87.73
2017-09-30T05:01:40.827Z,88.55
2017-09-30T05:04:08.524Z,87.63
2017-09-30T05:06:36.354Z,87.27
2017-09-30T05:09:04.293Z,87.81
2017-09-30T05:11:31.973Z,87.27
2017-09-30T05:13:59.677Z,87.37
2017-09-30T05:16:27.449Z,87.75
2017-09-30T05:18:55.274Z,87.83
2017-09-30T05:21:22.978Z,87.42
2017-09-30T05:23:50.806Z,87.20
2017-09-30T05:26:18.526Z,86.27
2017-09-30T05:28:46.264Z,86.37
2017-09-30T05:31:14.069Z,86.62
2017-09-30T05:33:41.791Z,85.30
2017-09-30T05:36:09.573Z,81.69
2017-09-30T05:38:37.289Z,79.20
2017-09-30T05:41:05.142Z,79.46
2017-09-30T05:43:32.820Z,80.41
2017-09-30T05:46:00.663Z,80.68
2017-09-30T05:48:28.418Z,81.46
2017-09-30T05:50:56.162Z,83.39
2017-09-30T05:53:23.836Z,84.95
2017-09-30T05:55:51.609Z,85.52
2017-09-30T05:58:19.281Z,87.34
2017-09-30T06:00:47.041Z,87.21
2017-09-30T06:03:14.736Z,86.59
2017-09-30T06:05:42.468Z,86.18
2017-09-30T06:08:10.142Z,86.30
2017-09-30T06:10:37.853Z,87.09
2017-09-30T06:13:05.603Z,87.33
2017-09-30T06:15:33.350Z,86.03
2017-09-30T06:18:01.130Z,85.81
2017-09-30T06:20:28.862Z,86.49
2017-09-30T06:22:57.342Z,86.16
2017-09-30T06:25:25.008Z,85.79
2017-09-30T06:27:54.867Z,85.41
2017-09-30T06:30:22.784Z,86.09
2017-09-30T06:32:50.593Z,86.37
2017-09-30T06:35:18.503Z,85.45
2017-09-30T06:37:46.819Z,85.27
2017-09-30T06:40:15.510Z,84.96
2017-09-30T06:42:43.318Z,85.56
2017-09-30T06:45:11.089Z,85.28
2017-09-30T06:47:38.812Z,85.11
2017-09-30T06:50:06.569Z,84.66
2017-09-30T06:52:34.343Z,85.49
2017-09-30T06:55:02.160Z,84.77
2017-09-30T06:57:29.852Z,84.26
2017-09-30T06:59:57.678Z,83.48
2017-09-30T07:02:25.433Z,84.14
2017-09-30T07:04:53.947Z,82.79
2017-09-30T07:07:22.385Z,82.01
2017-09-30T07:09:50.122Z,82.90
2017-09-30T07:12:17.923Z,82.41
2017-09-30T07:14:45.619Z,79.38
2017-09-30T07:17:13.465Z,78.62
2017-09-30T07:19:41.172Z,80.08
2017-09-30T07:22:08.871Z,79.82
2017-09-30T07:24:36.633Z,79.12
2017-09-30T07:27:04.392Z,76.60
2017-09-30T07:29:32.177Z,77.34
2017-09-30T07:31:59.904Z,78.77
2017-09-30T07:34:27.735Z,78.84
2017-09-30T07:36:55.472Z,77.08
2017-09-30T07:39:23.773Z,75.91
2017-09-30T07:41:51.524Z,73.96
2017-09-30T07:44:19.262Z,73.27
2017-09-30T07:46:47.068Z,71.29
2017-09-30T07:49:14.844Z,68.18
2017-09-30T07:51:42.530Z,68.00
2017-09-30T07:54:10.309Z,65.50
2017-09-30T07:56:38.039Z,63.78
2017-09-30T07:59:05.964Z,61.81
2017-09-30T08:01:33.732Z,60.92
2017-09-30T08:04:01.424Z,64.12
2017-09-30T08:06:29.949Z,59.40
2017-09-30T08:08:58.338Z,60.15
2017-09-30T08:11:26.050Z,59.49
2017-09-30T08:13:53.792Z,56.24
2017-09-30T08:16:22.633Z,57.46
2017-09-30T08:18:50.388Z,57.70
2017-09-30T08:21:18.093Z,56.71
2017-09-30T08:23:45.853Z,56.56
2017-09-30T08:26:13.574Z,56.37
2017-09-30T08:28:41.374Z,56.73
2017-09-30T08:31:09.067Z,56.87
2017-09-30T08:33:36.806Z,54.88
2017-09-30T08:36:04.591Z,55.34
2017-09-30T08:38:32.435Z,51.87
2017-09-30T08:41:00.162Z,55.29
2017-09-30T08:43:28.040Z,55.72
2017-09-30T08:45:55.733Z,53.83
2017-09-30T08:48:24.697Z,55.33
2017-09-30T08:50:52.449Z,54.17
2017-09-30T08:53:20.170Z,54.40
2017-09-30T08:55:47.950Z,52.94
2017-09-30T09:03:53.807Z,52.35
2017-09-30T09:06:32.311Z,54.98
2017-09-30T09:09:02.066Z,49.59
2017-09-30T09:11:29.827Z,50.60
2017-09-30T09:13:57.578Z,49.22
2017-09-30T09:16:26.350Z,51.12
2017-09-30T09:18:54.068Z,50.65
2017-09-30T09:21:21.885Z,51.80
2017-09-30T09:23:49.632Z,50.64
2017-09-30T09:26:17.433Z,49.84
2017-09-30T09:28:45.155Z,50.22
2017-09-30T09:31:12.944Z,51.87
2017-09-30T09:33:40.684Z,49.76
2017-09-30T09:36:08.473Z,46.65
2017-09-30T09:38:36.181Z,49.76
2017-09-30T09:41:03.940Z,50.12
2017-09-30T09:43:31.718Z,47.88
2017-09-30T09:45:59.639Z,50.07
2017-09-30T09:48:27.492Z,51.87
2017-09-30T09:50:56.036Z,49.96
2017-09-30T09:53:23.779Z,50.24
2017-09-30T09:55:52.637Z,48.22
2017-09-30T09:58:20.446Z,48.87
2017-09-30T10:00:48.281Z,49.39
2017-09-30T10:03:16.921Z,49.13
2017-09-30T10:05:45.167Z,48.82
2017-09-30T10:08:13.104Z,49.36
2017-09-30T10:10:41.186Z,50.39
2017-09-30T10:13:09.906Z,49.60
2017-09-30T10:15:37.730Z,48.46
2017-09-30T10:18:05.504Z,49.11
2017-09-30T10:20:33.321Z,47.44
2017-09-30T10:23:01.091Z,49.28
2017-09-30T10:25:28.817Z,48.66
2017-09-30T10:27:57.506Z,48.15
2017-09-30T10:30:25.270Z,49.11
2017-09-30T10:32:53.050Z,49.64
2017-09-30T10:35:20.859Z,49.39
2017-09-30T10:37:48.607Z,49.19
2017-09-30T10:40:16.285Z,47.73
2017-09-30T10:42:43.992Z,46.80
2017-09-30T10:45:11.765Z,48.83
2017-09-30T10:47:39.613Z,49.11
2017-09-30T10:50:07.372Z,47.41
2017-09-30T10:52:35.109Z,47.33
2017-09-30T10:55:02.983Z,48.90
2017-09-30T10:57:30.705Z,47.18
2017-09-30T10:59:59.370Z,48.15
2017-09-30T11:02:28.036Z,48.44
2017-09-30T11:04:56.932Z,48.12
2017-09-30T11:07:26.105Z,47.73
2017-09-30T11:09:54.938Z,47.48
2017-09-30T11:12:25.265Z,47.18
2017-09-30T11:14:54.827Z,48.28
2017-09-30T11:17:23.851Z,49.14
2017-09-30T11:19:52.899Z,47.18
2017-09-30T11:22:20.650Z,48.63
2017-09-30T11:24:49.345Z,48.96
2017-09-30T11:27:17.120Z,49.23
2017-09-30T11:29:45.063Z,48.54
2017-09-30T11:32:12.741Z,48.86
2017-09-30T11:34:41.543Z,47.71
2017-09-30T11:37:09.258Z,47.62
2017-09-30T11:39:36.963Z,47.62
2017-09-30T11:42:04.747Z,48.41
2017-09-30T11:44:32.463Z,47.89
2017-09-30T11:47:00.350Z,47.53
2017-09-30T11:49:28.729Z,49.73
2017-09-30T11:51:56.576Z,48.17
2017-09-30T11:54:24.290Z,47.66
2017-09-30T11:56:52.180Z,47.85
2017-09-30T11:59:19.921Z,48.09
2017-09-30T12:01:47.710Z,48.66
2017-09-30T12:04:15.621Z,47.43
2017-09-30T12:06:43.382Z,47.87
2017-09-30T12:09:11.108Z,47.78
2017-09-30T12:11:38.902Z,46.35
2017-09-30T12:14:06.884Z,46.91
2017-09-30T12:16:34.745Z,47.06
2017-09-30T12:19:02.689Z,46.74
2017-09-30T12:21:30.453Z,47.15
2017-09-30T12:23:58.249Z,45.97
2017-09-30T12:26:26.055Z,45.77
2017-09-30T12:28:53.799Z,46.25
2017-09-30T12:31:21.601Z,45.23
2017-09-30T12:33:49.341Z,46.52
2017-09-30T12:36:17.741Z,47.46
2017-09-30T12:38:45.582Z,48.05
2017-09-30T12:41:13.422Z,46.58
2017-09-30T12:43:41.202Z,47.40
2017-09-30T12:46:08.909Z,46.31
2017-09-30T12:48:36.695Z,47.22
2017-09-30T12:51:04.406Z,46.31
2017-09-30T12:53:32.373Z,47.93
2017-09-30T12:56:00.088Z,47.56
2017-09-30T12:58:27.917Z,44.68
2017-09-30T13:00:55.682Z,46.88
2017-09-30T13:03:23.502Z,46.19
2017-09-30T13:05:51.206Z,47.95
2017-09-30T13:08:18.962Z,47.70
2017-09-30T13:10:46.746Z,48.09
2017-09-30T13:13:14.466Z,47.71
2017-09-30T13:15:42.211Z,48.52
2017-09-30T13:18:09.998Z,47.95
2017-09-30T13:20:37.727Z,47.90
2017-09-30T13:23:05.446Z,48.21
2017-09-30T13:25:33.211Z,47.62
2017-09-30T13:28:00.908Z,48.02
2017-09-30T13:30:28.673Z,47.04
2017-09-30T13:32:56.412Z,48.54
2017-09-30T13:35:24.093Z,48.53
2017-09-30T13:37:51.880Z,48.09
2017-09-30T13:40:19.627Z,47.85
2017-09-30T13:42:47.381Z,47.34
2017-09-30T13:45:15.785Z,48.03
2017-09-30T13:47:43.950Z,47.94
2017-09-30T13:50:11.780Z,48.77
2017-09-30T13:52:39.496Z,48.83
2017-09-30T13:55:07.312Z,49.90
2017-09-30T13:57:35.098Z,48.83
2017-09-30T14:00:02.880Z,48.56
2017-09-30T14:02:30.622Z,48.78
2017-09-30T14:04:58.402Z,48.08
2017-09-30T14:07:26.115Z,47.65
2017-09-30T14:09:53.875Z,48.73
2017-09-30T14:12:21.581Z,48.52
2017-09-30T14:14:49.363Z,49.70
2017-09-30T14:17:17.054Z,48.18
2017-09-30T14:19:44.896Z,49.37
2017-09-30T14:22:12.694Z,50.73
2017-09-30T14:24:40.493Z,50.40
2017-09-30T14:27:08.206Z,50.89
2017-09-30T14:29:36.054Z,49.88
2017-09-30T14:32:03.829Z,50.76
2017-09-30T14:34:31.585Z,50.01
2017-09-30T14:36:59.315Z,50.75
2017-09-30T14:39:27.087Z,50.13
2017-09-30T14:41:54.857Z,51.43
2017-09-30T14:44:23.834Z,50.60
2017-09-30T14:46:52.274Z,50.32
2017-09-30T14:49:20.009Z,51.80
2017-09-30T14:51:47.958Z,50.59
2017-09-30T14:54:16.925Z,51.38
2017-09-30T14:56:44.616Z,50.84
2017-09-30T14:59:12.366Z,52.60
2017-09-30T15:01:40.139Z,51.57
2017-09-30T15:04:07.847Z,52.06
2017-09-30T15:06:35.603Z,53.40
2017-09-30T15:09:03.464Z,52.39
2017-09-30T15:11:31.314Z,53.47
2017-09-30T15:13:59.029Z,53.77
2017-09-30T15:16:27.495Z,54.38
2017-09-30T15:18:55.909Z,54.90
2017-09-30T15:21:23.660Z,54.91
2017-09-30T15:23:51.437Z,55.84
2017-09-30T15:26:19.161Z,55.92
2017-09-30T15:28:46.885Z,56.06
2017-09-30T15:31:14.750Z,55.76
2017-09-30T15:33:42.485Z,56.76
2017-09-30T15:36:10.280Z,58.40
2017-09-30T15:38:37.996Z,58.01
2017-09-30T15:41:05.753Z,56.31
2017-09-30T15:43:33.501Z,56.87
2017-09-30T15:46:01.281Z,57.88
2017-09-30T15:48:29.029Z,57.34
2017-09-30T15:50:57.872Z,58.25
2017-09-30T15:53:25.679Z,58.54
2017-09-30T15:55:54.169Z,58.54
2017-09-30T15:58:21.990Z,58.85
2017-09-30T16:00:49.795Z,58.91
2017-09-30T16:03:17.529Z,60.43
2017-09-30T16:05:45.300Z,59.78
2017-09-30T16:08:13.034Z,60.34
2017-09-30T16:10:40.849Z,59.81
2017-09-30T16:13:08.641Z,59.86
2017-09-30T16:15:36.409Z,60.00
2017-09-30T16:18:04.105Z,60.74
2017-09-30T16:20:31.965Z,60.23
2017-09-30T16:22:59.837Z,60.64
2017-09-30T16:25:27.578Z,60.73
2017-09-30T16:27:55.353Z,60.49
2017-09-30T16:30:23.063Z,60.59
2017-09-30T16:32:50.807Z,60.40
2017-09-30T16:35:18.515Z,60.95
2017-09-30T16:37:46.320Z,60.90
2017-09-30T16:40:14.078Z,61.82
2017-09-30T16:42:41.854Z,61.92
2017-09-30T16:45:10.491Z,61.56
2017-09-30T16:47:39.337Z,64.01
2017-09-30T16:50:07.029Z,65.63
2017-09-30T16:52:34.766Z,65.42
2017-09-30T16:55:02.487Z,65.87
2017-09-30T16:57:30.274Z,67.16
2017-09-30T16:59:58.005Z,67.25
2017-09-30T17:02:25.790Z,67.19
2017-09-30T17:04:53.489Z,67.94
2017-09-30T17:07:21.238Z,68.80
2017-09-30T17:09:48.971Z,69.48
2017-09-30T17:12:16.758Z,69.80
2017-09-30T17:14:44.495Z,69.48
2017-09-30T17:17:12.265Z,70.27
2017-09-30T17:19:40.084Z,70.53
2017-09-30T17:22:07.892Z,70.37
2017-09-30T17:24:35.748Z,70.75
2017-09-30T17:27:03.511Z,70.96
2017-09-30T17:29:31.308Z,72.35
2017-09-30T17:31:59.191Z,72.10
2017-09-30T17:34:26.964Z,72.74
2017-09-30T17:36:54.981Z,72.15
2017-09-30T17:39:22.993Z,71.65
2017-09-30T17:41:51.326Z,72.53
2017-09-30T17:44:19.117Z,73.26
2017-09-30T17:46:46.834Z,72.77
2017-09-30T17:49:14.667Z,73.21
2017-09-30T17:51:43.321Z,72.72
2017-09-30T17:54:11.044Z,72.98
2017-09-30T17:56:39.863Z,73.60
2017-09-30T17:59:08.260Z,73.40
2017-09-30T18:01:36.281Z,73.53
2017-09-30T18:04:04.068Z,74.08
2017-09-30T18:06:31.908Z,73.85
2017-09-30T18:08:59.788Z,74.12
2017-09-30T18:11:27.630Z,74.58
2017-09-30T18:13:55.419Z,75.20
2017-09-30T18:16:23.407Z,74.68
2017-09-30T18:18:51.559Z,75.19
2017-09-30T18:21:19.735Z,76.07
2017-09-30T18:23:47.543Z,76.32
2017-09-30T18:26:15.873Z,76.22
2017-09-30T18:28:43.655Z,76.11
2017-09-30T18:31:11.594Z,75.47
2017-09-30T18:33:39.589Z,75.36
2017-09-30T18:36:07.503Z,75.30
2017-09-30T18:38:35.441Z,74.92
2017-09-30T18:41:03.357Z,75.98
2017-09-30T18:43:31.098Z,75.81
2017-09-30T18:45:59.156Z,76.24
2017-09-30T18:48:26.958Z,77.01
2017-09-30T18:50:55.958Z,76.40
2017-09-30T18:53:23.707Z,76.05
2017-09-30T18:55:51.452Z,76.28
2017-09-30T18:58:19.271Z,76.70
2017-09-30T19:00:47.480Z,76.24
2017-09-30T19:03:15.406Z,76.82
2017-09-30T19:05:43.213Z,76.98
2017-09-30T19:08:11.592Z,76.51
2017-09-30T19:10:39.572Z,76.60
2017-09-30T19:13:07.491Z,76.64
2017-09-30T19:15:35.361Z,77.32
2017-09-30T19:18:04.230Z,77.50
2017-09-30T19:20:33.083Z,77.41
2017-09-30T19:23:00.864Z,76.94
2017-09-30T19:25:28.657Z,76.91
2017-09-30T19:27:57.644Z,77.29
2017-09-30T19:30:25.776Z,77.58
2017-09-30T19:32:53.579Z,77.69
2017-09-30T19:35:21.709Z,77.25
2017-09-30T19:37:49.522Z,77.75
2017-09-30T19:40:17.424Z,78.04
2017-09-30T19:42:45.182Z,78.51
2017-09-30T19:45:13.102Z,78.41
2017-09-30T19:47:41.770Z,78.72
2017-09-30T19:50:09.532Z,79.12
2017-09-30T19:52:37.527Z,79.08
2017-09-30T19:55:05.902Z,79.17
2017-09-30T19:57:33.849Z,79.28
2017-09-30T20:00:02.536Z,79.49
2017-09-30T20:02:31.493Z,79.73
2017-09-30T20:04:59.418Z,79.76
2017-09-30T20:07:27.787Z,81.60
2017-09-30T20:09:55.948Z,79.42
2017-09-30T20:12:25.174Z,78.99
2017-09-30T20:14:53.185Z,79.85
2017-09-30T20:17:21.417Z,80.44
2017-09-30T20:19:50.458Z,80.34
2017-09-30T20:22:18.235Z,80.57
2017-09-30T20:24:46.662Z,80.53
2017-09-30T20:27:14.847Z,80.92
2017-09-30T20:29:42.591Z,80.49
2017-09-30T20:32:10.401Z,80.16
2017-09-30T20:34:38.185Z,80.44
2017-09-30T20:37:05.967Z,80.07
2017-09-30T20:39:34.897Z,79.62
2017-09-30T20:42:02.702Z,79.89
2017-09-30T20:44:30.467Z,80.64
2017-09-30T20:46:58.192Z,80.53
2017-09-30T20:49:25.962Z,80.21
2017-09-30T20:51:53.733Z,80.22
2017-09-30T20:54:22.976Z,80.49
2017-09-30T20:56:50.706Z,80.64
2017-09-30T20:59:18.470Z,80.72
2017-09-30T21:01:46.812Z,80.57
2017-09-30T21:04:14.501Z,80.96
2017-09-30T21:06:42.260Z,80.81
2017-09-30T21:09:10.078Z,80.72
2017-09-30T21:11:37.930Z,81.05
2017-09-30T21:14:05.961Z,81.35
2017-09-30T21:16:33.664Z,81.39
2017-09-30T21:19:01.557Z,81.14
2017-09-30T21:21:29.392Z,81.44
2017-09-30T21:23:58.615Z,81.76
2017-09-30T21:26:26.397Z,81.99
2017-09-30T21:28:54.184Z,81.73
2017-09-30T21:31:21.941Z,81.99
2017-09-30T21:33:50.628Z,81.81
2017-09-30T21:36:18.328Z,81.77
2017-09-30T21:38:46.526Z,81.67
2017-09-30T21:41:14.316Z,81.88
2017-09-30T21:43:42.069Z,81.61
2017-09-30T21:46:09.984Z,81.43
2017-09-30T21:48:37.739Z,81.29
2017-09-30T21:51:05.512Z,81.22
2017-09-30T21:53:33.450Z,81.51
2017-09-30T21:56:01.266Z,81.82
2017-09-30T21:58:29.130Z,82.13
2017-09-30T22:00:56.900Z,82.06
2017-09-30T22:03:24.601Z,82.17
2017-09-30T22:05:52.434Z,82.31
2017-09-30T22:08:20.127Z,81.95
2017-09-30T22:10:47.820Z,81.92
2017-09-30T22:13:15.565Z,82.21
2017-09-30T22:15:43.339Z,82.53
2017-09-30T22:18:11.117Z,83.29
2017-09-30T22:20:38.882Z,83.58
2017-09-30T22:23:06.649Z,83.78
2017-09-30T22:25:34.484Z,83.53
2017-09-30T22:28:02.218Z,83.75
2017-09-30T22:30:29.934Z,83.67
2017-09-30T22:32:57.691Z,83.30
2017-09-30T22:35:25.544Z,83.42
2017-09-30T22:37:54.069Z,83.16
2017-09-30T22:40:21.789Z,83.13
2017-09-30T22:42:50.277Z,83.01
2017-09-30T22:45:17.958Z,83.25
2017-09-30T22:47:45.744Z,83.13
2017-09-30T22:50:13.454Z,83.56
2017-09-30T22:52:41.795Z,83.63
2017-09-30T22:55:09.627Z,83.51
2017-09-30T22:57:38.665Z,83.65
2017-09-30T23:00:06.480Z,83.61
2017-09-30T23:02:34.230Z,83.55
2017-09-30T23:05:02.149Z,83.37
2017-09-30T23:07:29.837Z,83.61
2017-09-30T23:09:57.500Z,83.35
2017-09-30T23:12:25.222Z,83.71
2017-09-30T23:14:52.971Z,83.58
2017-09-30T23:17:20.667Z,83.62
2017-09-30T23:19:49.274Z,83.68
2017-09-30T23:22:17.024Z,84.25
2017-09-30T23:24:44.736Z,84.02
2017-09-30T23:27:12.433Z,84.08
2017-09-30T23:29:40.266Z,84.34
2017-09-30T23:32:07.939Z,83.89
2017-09-30T23:34:35.638Z,84.76
2017-09-30T23:37:03.387Z,84.18
2017-09-30T23:39:31.104Z,84.06
2017-09-30T23:41:58.807Z,84.80
2017-09-30T23:44:26.540Z,85.47
2017-09-30T23:46:54.293Z,85.05
2017-09-30T23:49:22.042Z,84.67
2017-09-30T23:51:49.834Z,85.02
2017-09-30T23:54:17.581Z,84.69
2017-09-30T23:56:45.326Z,84.54
2017-09-30T23:59:13.038Z,84.83
